createdAt,value
2022-12-03T00:00:13.504Z,18.07
2022-12-03T00:01:10.955Z,17.83
2022-12-03T00:02:08.336Z,19.22
2022-12-03T00:03:05.977Z,18.45
2022-12-03T00:04:03.619Z,18.15
2022-12-03T00:05:01.260Z,18.65
2022-12-03T00:05:58.580Z,18.76
2022-12-03T00:06:55.924Z,18.57
2022-12-03T00:07:53.400Z,18.96
2022-12-03T00:08:50.851Z,17.82
2022-12-03T00:09:48.243Z,17.97
2022-12-03T00:10:45.623Z,18.19
2022-12-03T00:11:43.039Z,18.30
2022-12-03T00:12:40.318Z,17.95
2022-12-03T00:13:37.630Z,18.16
2022-12-03T00:14:36.157Z,18.02
2022-12-03T00:15:36.182Z,18.10
2022-12-03T00:16:33.879Z,16.93
2022-12-03T00:17:31.283Z,17.97
2022-12-03T00:18:28.631Z,17.69
2022-12-03T00:19:26.093Z,18.06
2022-12-03T00:20:24.499Z,17.71
2022-12-03T00:21:24.462Z,17.48
2022-12-03T00:22:22.174Z,17.80
2022-12-03T00:23:19.526Z,17.39
2022-12-03T00:24:16.875Z,17.89
2022-12-03T00:25:14.218Z,18.02
2022-12-03T00:26:11.779Z,18.11
2022-12-03T00:27:09.169Z,17.26
2022-12-03T00:28:06.599Z,18.08
2022-12-03T00:29:03.956Z,18.46
2022-12-03T00:30:01.398Z,19.01
2022-12-03T00:30:58.803Z,19.61
2022-12-03T00:31:56.212Z,19.65
2022-12-03T00:32:53.544Z,19.40
2022-12-03T00:33:51.388Z,18.80
2022-12-03T00:34:48.725Z,19.84
2022-12-03T00:35:46.275Z,19.26
2022-12-03T00:36:43.586Z,20.07
2022-12-03T00:37:40.916Z,19.78
2022-12-03T00:38:38.278Z,18.14
2022-12-03T00:39:35.625Z,17.72
2022-12-03T00:40:32.938Z,17.94
2022-12-03T00:41:30.367Z,18.12
2022-12-03T00:42:27.680Z,18.40
2022-12-03T00:43:24.983Z,18.55
2022-12-03T00:44:22.287Z,19.10
2022-12-03T00:45:19.638Z,18.64
2022-12-03T00:46:21.288Z,18.08
2022-12-03T00:47:19.137Z,18.66
2022-12-03T00:48:16.469Z,17.90
2022-12-03T00:49:13.756Z,17.11
2022-12-03T00:50:11.438Z,17.25
2022-12-03T00:51:08.835Z,17.22
2022-12-03T00:52:06.167Z,16.93
2022-12-03T00:53:03.573Z,16.49
2022-12-03T00:54:00.951Z,17.00
2022-12-03T00:54:58.296Z,17.02
2022-12-03T00:55:55.673Z,18.42
2022-12-03T00:56:53.004Z,17.15
2022-12-03T00:57:50.366Z,18.78
2022-12-03T00:58:47.752Z,19.28
2022-12-03T00:59:45.059Z,19.28
2022-12-03T01:00:42.382Z,19.33
2022-12-03T01:01:39.722Z,19.05
2022-12-03T01:02:37.104Z,18.29
2022-12-03T01:03:34.470Z,18.02
2022-12-03T01:04:33.928Z,18.53
2022-12-03T01:05:31.475Z,18.81
2022-12-03T01:06:28.802Z,18.80
2022-12-03T01:07:26.224Z,19.03
2022-12-03T01:08:24.257Z,19.37
2022-12-03T01:09:21.603Z,21.39
2022-12-03T01:10:19.023Z,20.55
2022-12-03T01:11:34.895Z,20.45
2022-12-03T01:12:32.237Z,20.36
2022-12-03T01:13:29.604Z,18.94
2022-12-03T01:14:26.921Z,19.89
2022-12-03T01:15:24.312Z,19.42
2022-12-03T01:16:21.811Z,19.64
2022-12-03T01:17:19.260Z,19.06
2022-12-03T01:18:16.620Z,17.64
2022-12-03T01:19:17.673Z,18.26
2022-12-03T01:20:15.137Z,17.92
2022-12-03T01:21:12.566Z,19.57
2022-12-03T01:22:10.000Z,19.02
2022-12-03T01:23:07.404Z,19.40
2022-12-03T01:24:04.967Z,20.57
2022-12-03T01:25:02.759Z,23.62
2022-12-03T01:26:00.086Z,24.06
2022-12-03T01:26:57.794Z,23.39
2022-12-03T01:27:55.156Z,21.24
2022-12-03T01:28:53.209Z,22.25
2022-12-03T01:29:50.515Z,22.18
2022-12-03T01:31:06.529Z,22.85
2022-12-03T01:32:21.926Z,21.40
2022-12-03T01:33:19.358Z,20.74
2022-12-03T01:34:16.689Z,20.89
2022-12-03T01:35:14.040Z,20.41
2022-12-03T01:36:11.420Z,20.97
2022-12-03T01:37:08.829Z,20.99
2022-12-03T01:38:06.250Z,21.14
2022-12-03T01:39:04.238Z,20.19
2022-12-03T01:40:01.562Z,19.86
2022-12-03T01:40:59.082Z,21.23
2022-12-03T01:41:58.821Z,20.95
2022-12-03T01:42:56.224Z,21.14
2022-12-03T01:43:54.935Z,20.62
2022-12-03T01:44:55.078Z,19.73
2022-12-03T01:45:52.613Z,18.75
2022-12-03T01:46:51.071Z,18.03
2022-12-03T01:47:48.573Z,17.45
2022-12-03T01:48:47.965Z,18.11
2022-12-03T01:49:49.570Z,19.24
2022-12-03T01:50:47.024Z,18.40
2022-12-03T01:51:45.053Z,20.12
2022-12-03T01:52:42.592Z,21.60
2022-12-03T01:53:40.035Z,19.35
2022-12-03T01:54:40.554Z,18.21
2022-12-03T01:55:38.131Z,17.57
2022-12-03T01:56:35.476Z,16.63
2022-12-03T01:57:54.066Z,16.36
2022-12-03T01:58:51.394Z,16.84
2022-12-03T01:59:49.380Z,16.73
2022-12-03T02:00:46.691Z,16.28
2022-12-03T02:01:44.378Z,15.46
2022-12-03T02:02:41.863Z,16.55
2022-12-03T02:03:39.270Z,16.29
2022-12-03T02:04:36.616Z,16.02
2022-12-03T02:05:34.021Z,17.25
2022-12-03T02:06:31.399Z,19.61
2022-12-03T02:07:30.967Z,17.96
2022-12-03T02:08:31.125Z,18.68
2022-12-03T02:09:28.530Z,18.83
2022-12-03T02:10:32.629Z,19.50
2022-12-03T02:11:32.540Z,19.91
2022-12-03T02:12:33.424Z,19.37
2022-12-03T02:13:31.157Z,19.19
2022-12-03T02:14:28.463Z,18.75
2022-12-03T02:15:26.086Z,19.10
2022-12-03T02:16:23.637Z,18.88
2022-12-03T02:17:21.430Z,18.99
2022-12-03T02:18:18.819Z,19.84
2022-12-03T02:19:24.770Z,19.39
2022-12-03T02:20:22.458Z,18.68
2022-12-03T02:21:40.003Z,18.87
2022-12-03T02:22:52.251Z,19.51
2022-12-03T02:23:58.340Z,19.29
2022-12-03T02:24:59.163Z,19.70
2022-12-03T02:25:56.569Z,19.15
2022-12-03T02:26:53.903Z,18.82
2022-12-03T02:27:53.667Z,17.45
2022-12-03T02:28:51.140Z,18.16
2022-12-03T02:29:48.586Z,17.80
2022-12-03T02:30:45.962Z,16.95
2022-12-03T02:31:43.787Z,17.12
2022-12-03T02:32:41.331Z,18.15
2022-12-03T02:33:38.741Z,19.11
2022-12-03T02:34:40.797Z,20.46
2022-12-03T02:35:39.002Z,17.04
2022-12-03T02:36:37.479Z,16.85
2022-12-03T02:37:37.332Z,15.96
2022-12-03T02:38:35.907Z,14.58
2022-12-03T02:39:36.365Z,14.58
2022-12-03T02:40:34.441Z,16.10
2022-12-03T02:41:50.722Z,15.43
2022-12-03T02:42:51.038Z,17.64
2022-12-03T02:43:48.346Z,15.97
2022-12-03T02:44:45.667Z,15.67
2022-12-03T02:45:45.553Z,15.92
2022-12-03T02:46:43.045Z,15.66
2022-12-03T02:47:45.185Z,13.98
2022-12-03T02:48:42.577Z,13.66
2022-12-03T02:49:40.469Z,14.02
2022-12-03T02:50:40.387Z,21.24
2022-12-03T02:51:37.812Z,15.55
2022-12-03T02:52:36.068Z,14.79
2022-12-03T02:53:36.686Z,15.34
2022-12-03T02:54:34.573Z,14.45
2022-12-03T02:55:37.107Z,13.79
2022-12-03T02:56:35.036Z,14.16
2022-12-03T02:57:33.789Z,16.74
2022-12-03T02:58:33.714Z,15.59
2022-12-03T02:59:31.208Z,14.51
2022-12-03T03:00:29.097Z,40.76
2022-12-03T03:01:26.875Z,30.65
2022-12-03T03:02:24.491Z,19.98
2022-12-03T03:03:24.731Z,19.43
2022-12-03T03:04:24.817Z,17.92
2022-12-03T03:05:23.838Z,14.60
2022-12-03T03:06:22.006Z,13.90
2022-12-03T03:07:19.332Z,13.81
2022-12-03T03:08:18.135Z,15.05
2022-12-03T03:09:15.583Z,17.94
2022-12-03T03:10:16.263Z,15.84
2022-12-03T03:11:13.627Z,14.10
2022-12-03T03:12:11.389Z,12.92
2022-12-03T03:13:10.987Z,12.70
2022-12-03T03:14:08.383Z,12.59
2022-12-03T03:15:07.497Z,13.72
2022-12-03T03:16:06.477Z,12.68
2022-12-03T03:17:04.089Z,12.88
2022-12-03T03:18:01.665Z,13.84
2022-12-03T03:18:59.155Z,14.27
2022-12-03T03:19:56.714Z,13.84
2022-12-03T03:20:54.188Z,15.53
2022-12-03T03:21:52.177Z,14.74
2022-12-03T03:22:49.579Z,15.68
2022-12-03T03:23:47.044Z,15.74
2022-12-03T03:24:44.488Z,16.17
2022-12-03T03:25:44.248Z,15.54
2022-12-03T03:26:41.949Z,16.86
2022-12-03T03:27:41.263Z,16.38
2022-12-03T03:28:41.076Z,14.05
2022-12-03T03:29:38.770Z,13.67
2022-12-03T03:30:38.721Z,19.18
2022-12-03T03:31:36.465Z,14.86
2022-12-03T03:32:34.937Z,16.12
2022-12-03T03:33:35.190Z,19.43
2022-12-03T03:34:33.121Z,25.73
2022-12-03T03:35:31.079Z,19.17
2022-12-03T03:36:28.656Z,15.39
2022-12-03T03:37:27.738Z,17.30
2022-12-03T03:38:25.393Z,17.48
2022-12-03T03:39:22.833Z,14.91
2022-12-03T03:40:21.762Z,13.82
2022-12-03T03:41:20.872Z,12.29
2022-12-03T03:42:18.495Z,12.28
2022-12-03T03:43:16.077Z,12.03
2022-12-03T03:44:14.176Z,11.96
2022-12-03T03:45:11.630Z,13.70
2022-12-03T03:46:09.719Z,17.58
2022-12-03T03:47:07.361Z,12.88
2022-12-03T03:48:05.125Z,10.66
2022-12-03T03:49:04.284Z,10.78
2022-12-03T03:50:02.528Z,11.25
2022-12-03T03:51:00.629Z,10.55
2022-12-03T03:51:58.556Z,10.72
2022-12-03T03:52:57.140Z,11.24
2022-12-03T03:53:55.099Z,11.28
2022-12-03T03:54:52.847Z,11.54
2022-12-03T03:55:51.441Z,11.28
2022-12-03T03:56:48.904Z,10.84
2022-12-03T03:57:47.160Z,10.75
2022-12-03T03:58:44.595Z,11.01
2022-12-03T03:59:41.983Z,13.79
2022-12-03T04:00:39.464Z,10.81
2022-12-03T04:01:37.036Z,11.11
2022-12-03T04:02:36.139Z,10.79
2022-12-03T04:03:34.483Z,11.17
2022-12-03T04:04:35.281Z,10.62
2022-12-03T04:05:35.174Z,10.42
2022-12-03T04:06:32.496Z,11.06
2022-12-03T04:07:29.854Z,10.98
2022-12-03T04:08:28.155Z,11.44
2022-12-03T04:09:25.494Z,10.58
2022-12-03T04:10:41.160Z,10.89
2022-12-03T04:11:56.954Z,10.79
2022-12-03T04:12:56.957Z,11.60
2022-12-03T04:13:54.400Z,12.72
2022-12-03T04:14:52.103Z,11.22
2022-12-03T04:15:49.900Z,10.98
2022-12-03T04:16:47.342Z,12.21
2022-12-03T04:17:44.680Z,13.37
2022-12-03T04:18:44.985Z,15.66
2022-12-03T04:19:42.401Z,17.03
2022-12-03T04:20:40.147Z,17.91
2022-12-03T04:21:55.918Z,18.26
2022-12-03T04:22:53.281Z,18.84
2022-12-03T04:23:50.634Z,18.77
2022-12-03T04:24:48.418Z,19.62
2022-12-03T04:26:04.192Z,19.82
2022-12-03T04:27:39.763Z,18.46
2022-12-03T04:28:49.132Z,19.59
2022-12-03T04:29:46.467Z,19.19
2022-12-03T04:30:43.847Z,19.42
2022-12-03T04:31:59.704Z,19.71
2022-12-03T04:33:15.713Z,18.49
2022-12-03T04:34:31.657Z,20.61
2022-12-03T04:35:44.039Z,20.49
2022-12-03T04:36:41.448Z,20.01
2022-12-03T04:37:38.791Z,21.24
2022-12-03T04:38:36.117Z,20.76
2022-12-03T04:39:33.727Z,21.68
2022-12-03T04:40:49.447Z,20.42
2022-12-03T04:41:46.779Z,20.42
2022-12-03T04:42:44.105Z,20.37
2022-12-03T04:44:01.350Z,20.54
2022-12-03T04:44:58.727Z,20.65
2022-12-03T04:45:56.140Z,20.08
2022-12-03T04:46:53.527Z,19.44
2022-12-03T04:47:50.923Z,18.92
2022-12-03T04:48:48.299Z,20.06
2022-12-03T04:49:47.109Z,20.14
2022-12-03T04:50:44.424Z,19.43
2022-12-03T04:51:41.762Z,19.41
2022-12-03T04:52:39.186Z,20.35
2022-12-03T04:53:36.509Z,20.01
2022-12-03T04:54:35.235Z,19.42
2022-12-03T04:55:32.618Z,18.42
2022-12-03T04:56:29.964Z,18.42
2022-12-03T04:57:27.328Z,17.66
2022-12-03T04:58:24.762Z,18.87
2022-12-03T04:59:22.146Z,19.03
2022-12-03T05:00:19.502Z,18.42
2022-12-03T05:01:16.989Z,19.52
2022-12-03T05:02:14.480Z,19.68
2022-12-03T05:03:11.863Z,19.01
2022-12-03T05:04:09.257Z,19.45
2022-12-03T05:05:06.813Z,19.10
2022-12-03T05:06:04.190Z,19.51
2022-12-03T05:07:01.552Z,18.91
2022-12-03T05:07:58.991Z,18.93
2022-12-03T05:08:56.397Z,19.29
2022-12-03T05:09:53.705Z,18.38
2022-12-03T05:10:51.019Z,17.47
2022-12-03T05:11:48.344Z,16.90
2022-12-03T05:12:45.700Z,16.76
2022-12-03T05:13:43.311Z,16.17
2022-12-03T05:14:40.724Z,15.58
2022-12-03T05:15:38.025Z,16.37
2022-12-03T05:16:36.004Z,14.75
2022-12-03T05:17:33.506Z,13.36
2022-12-03T05:18:30.838Z,14.21
2022-12-03T05:19:48.115Z,13.42
2022-12-03T05:20:51.503Z,13.79
2022-12-03T05:21:50.474Z,14.21
2022-12-03T05:22:47.798Z,14.45
2022-12-03T05:23:45.226Z,14.92
2022-12-03T05:24:42.614Z,14.61
2022-12-03T05:25:40.304Z,14.62
2022-12-03T05:26:37.668Z,14.66
2022-12-03T05:27:35.007Z,13.87
2022-12-03T05:28:32.333Z,14.06
2022-12-03T05:29:29.809Z,14.44
2022-12-03T05:30:27.195Z,13.14
2022-12-03T05:31:24.836Z,12.74
2022-12-03T05:32:22.188Z,12.03
2022-12-03T05:33:20.542Z,11.68
2022-12-03T05:34:17.852Z,11.75
2022-12-03T05:35:15.240Z,12.06
2022-12-03T05:36:12.523Z,12.32
2022-12-03T05:37:09.953Z,11.53
2022-12-03T05:38:07.276Z,11.71
2022-12-03T05:39:04.622Z,11.55
2022-12-03T05:40:01.929Z,11.93
2022-12-03T05:40:59.308Z,12.30
2022-12-03T05:42:15.042Z,11.63
2022-12-03T05:43:12.389Z,11.05
2022-12-03T05:44:09.724Z,10.42
2022-12-03T05:45:07.267Z,11.30
2022-12-03T05:46:04.669Z,11.12
2022-12-03T05:47:02.001Z,11.20
2022-12-03T05:48:00.234Z,11.42
2022-12-03T05:48:57.572Z,12.07
2022-12-03T05:49:54.867Z,11.35
2022-12-03T05:50:52.276Z,11.67
2022-12-03T05:51:52.530Z,12.47
2022-12-03T05:52:54.137Z,11.45
2022-12-03T05:53:51.429Z,11.78
2022-12-03T05:54:48.779Z,11.67
2022-12-03T05:55:46.113Z,11.84
2022-12-03T05:56:43.586Z,11.45
2022-12-03T05:57:40.945Z,10.86
2022-12-03T05:58:38.283Z,10.60
2022-12-03T05:59:35.589Z,10.08
2022-12-03T06:00:42.531Z,10.30
2022-12-03T06:01:40.382Z,11.06
2022-12-03T06:02:37.816Z,11.36
2022-12-03T06:03:35.439Z,11.17
2022-12-03T06:04:32.922Z,9.52
2022-12-03T06:05:30.301Z,8.99
2022-12-03T06:06:27.598Z,8.48
2022-12-03T06:07:25.049Z,8.99
2022-12-03T06:08:22.506Z,9.17
2022-12-03T06:09:19.874Z,10.38
2022-12-03T06:10:18.754Z,9.31
2022-12-03T06:11:16.023Z,9.22
2022-12-03T06:12:13.365Z,10.02
2022-12-03T06:13:10.762Z,10.72
2022-12-03T06:14:08.385Z,13.47
2022-12-03T06:15:08.032Z,15.10
2022-12-03T06:16:05.556Z,14.26
2022-12-03T06:17:03.289Z,14.74
2022-12-03T06:18:00.614Z,15.55
2022-12-03T06:18:57.983Z,16.97
2022-12-03T06:19:55.277Z,16.60
2022-12-03T06:20:52.646Z,15.86
2022-12-03T06:21:50.063Z,14.20
2022-12-03T06:22:48.042Z,14.00
2022-12-03T06:23:45.334Z,13.98
2022-12-03T06:24:42.674Z,15.16
2022-12-03T06:25:40.032Z,15.46
2022-12-03T06:26:37.371Z,15.22
2022-12-03T06:27:34.808Z,16.18
2022-12-03T06:28:32.122Z,15.29
2022-12-03T06:29:29.472Z,16.04
2022-12-03T06:30:26.913Z,16.88
2022-12-03T06:31:24.304Z,16.10
2022-12-03T06:32:21.684Z,16.77
2022-12-03T06:33:19.004Z,16.14
2022-12-03T06:34:16.396Z,16.17
2022-12-03T06:35:13.711Z,17.11
2022-12-03T06:36:11.351Z,16.89
2022-12-03T06:37:08.973Z,16.13
2022-12-03T06:38:06.624Z,17.06
2022-12-03T06:39:03.974Z,17.05
2022-12-03T06:40:01.309Z,17.34
2022-12-03T06:40:58.651Z,17.28
2022-12-03T06:41:55.978Z,17.57
2022-12-03T06:42:53.457Z,18.49
2022-12-03T06:43:50.747Z,17.79
2022-12-03T06:44:48.068Z,18.39
2022-12-03T06:45:47.902Z,17.67
2022-12-03T06:46:45.685Z,19.59
2022-12-03T06:47:43.112Z,18.46
2022-12-03T06:48:40.464Z,18.65
2022-12-03T06:49:37.800Z,18.54
2022-12-03T06:50:35.161Z,18.75
2022-12-03T06:51:32.583Z,18.60
2022-12-03T06:52:29.874Z,18.20
2022-12-03T06:53:27.208Z,18.36
2022-12-03T06:54:24.644Z,17.95
2022-12-03T06:55:21.961Z,18.25
2022-12-03T06:56:22.347Z,18.51
2022-12-03T06:57:20.096Z,18.70
2022-12-03T06:58:17.446Z,18.87
2022-12-03T06:59:14.785Z,18.70
2022-12-03T07:00:12.426Z,18.10
2022-12-03T07:01:09.813Z,18.54
2022-12-03T07:02:07.351Z,18.43
2022-12-03T07:03:04.881Z,18.86
2022-12-03T07:04:02.251Z,20.47
2022-12-03T07:04:59.608Z,18.48
2022-12-03T07:05:56.932Z,19.75
2022-12-03T07:06:54.292Z,19.36
2022-12-03T07:07:52.395Z,19.43
2022-12-03T07:08:49.823Z,18.98
2022-12-03T07:09:47.206Z,18.52
2022-12-03T07:10:44.557Z,19.47
2022-12-03T07:11:41.997Z,18.81
2022-12-03T07:12:39.364Z,18.92
2022-12-03T07:13:36.680Z,18.61
2022-12-03T07:14:34.086Z,18.96
2022-12-03T07:15:31.390Z,18.88
2022-12-03T07:16:29.452Z,19.13
2022-12-03T07:17:26.830Z,19.41
2022-12-03T07:18:24.226Z,17.97
2022-12-03T07:19:21.832Z,17.72
2022-12-03T07:20:19.237Z,18.01
2022-12-03T07:21:16.757Z,17.33
2022-12-03T07:22:14.147Z,17.34
2022-12-03T07:23:11.505Z,16.78
2022-12-03T07:24:09.174Z,17.17
2022-12-03T07:25:06.765Z,16.84
2022-12-03T07:26:04.116Z,17.20
2022-12-03T07:27:01.570Z,16.82
2022-12-03T07:27:58.938Z,17.50
2022-12-03T07:28:56.336Z,16.70
2022-12-03T07:29:53.868Z,17.68
2022-12-03T07:30:51.225Z,16.92
2022-12-03T07:31:48.726Z,17.20
2022-12-03T07:32:46.218Z,17.34
2022-12-03T07:33:43.558Z,16.89
2022-12-03T07:34:41.236Z,16.63
2022-12-03T07:35:38.603Z,16.89
2022-12-03T07:36:35.964Z,17.17
2022-12-03T07:37:33.905Z,17.59
2022-12-03T07:38:31.245Z,17.13
2022-12-03T07:39:28.595Z,16.65
2022-12-03T07:40:25.943Z,16.30
2022-12-03T07:41:23.273Z,16.34
2022-12-03T07:42:20.643Z,16.16
2022-12-03T07:43:17.929Z,16.25
2022-12-03T07:44:15.248Z,15.84
2022-12-03T07:45:12.698Z,15.39
2022-12-03T07:46:10.145Z,16.32
2022-12-03T07:47:07.683Z,15.97
2022-12-03T07:48:05.171Z,15.40
2022-12-03T07:49:03.579Z,15.48
2022-12-03T07:50:00.949Z,16.15
2022-12-03T07:50:58.600Z,15.53
2022-12-03T07:51:57.162Z,15.56
2022-12-03T07:52:54.988Z,15.50
2022-12-03T07:53:52.409Z,14.88
2022-12-03T07:54:49.795Z,15.55
2022-12-03T07:55:47.109Z,16.35
2022-12-03T07:56:44.494Z,16.46
2022-12-03T07:57:41.824Z,16.29
2022-12-03T07:58:39.175Z,15.58
2022-12-03T07:59:36.529Z,15.05
2022-12-03T08:00:34.000Z,15.36
2022-12-03T08:01:31.417Z,15.48
2022-12-03T08:02:28.929Z,16.31
2022-12-03T08:03:26.379Z,16.03
2022-12-03T08:04:23.687Z,16.41
2022-12-03T08:05:21.050Z,16.29
2022-12-03T08:06:18.428Z,16.76
2022-12-03T08:07:15.775Z,16.62
2022-12-03T08:08:13.227Z,16.85
2022-12-03T08:09:15.787Z,16.35
2022-12-03T08:10:13.581Z,15.77
2022-12-03T08:11:14.205Z,16.29
2022-12-03T08:12:40.041Z,16.14
2022-12-03T08:13:37.733Z,16.27
2022-12-03T08:14:35.846Z,17.21
2022-12-03T08:15:39.561Z,17.13
2022-12-03T08:16:39.442Z,17.83
2022-12-03T08:17:39.189Z,17.72
2022-12-03T08:18:36.543Z,16.31
2022-12-03T08:19:33.927Z,15.78
2022-12-03T08:20:39.067Z,15.94
2022-12-03T08:21:36.973Z,16.01
2022-12-03T08:22:34.364Z,16.18
2022-12-03T08:23:31.776Z,16.79
2022-12-03T08:24:30.389Z,16.95
2022-12-03T08:25:30.572Z,15.99
2022-12-03T08:26:28.293Z,16.17
2022-12-03T08:27:25.707Z,16.15
2022-12-03T08:28:25.849Z,15.10
2022-12-03T08:29:24.606Z,15.09
2022-12-03T08:30:22.781Z,16.72
2022-12-03T08:31:32.222Z,15.28
2022-12-03T08:32:31.526Z,16.45
2022-12-03T08:33:35.271Z,15.82
2022-12-03T08:34:39.256Z,16.35
2022-12-03T08:35:36.599Z,16.06
2022-12-03T08:36:34.003Z,16.88
2022-12-03T08:37:31.351Z,16.79
2022-12-03T08:38:29.677Z,16.25
2022-12-03T08:39:34.940Z,17.06
2022-12-03T08:40:36.929Z,17.24
2022-12-03T08:41:54.721Z,18.84
2022-12-03T08:42:52.114Z,18.43
2022-12-03T08:43:49.513Z,19.25
2022-12-03T08:44:47.396Z,19.40
2022-12-03T08:45:45.570Z,20.05
2022-12-03T08:46:43.086Z,19.85
2022-12-03T08:47:40.584Z,20.41
2022-12-03T08:48:40.713Z,21.87
2022-12-03T08:49:40.667Z,22.77
2022-12-03T08:50:42.351Z,22.59
2022-12-03T08:51:39.707Z,22.87
2022-12-03T08:52:37.021Z,21.28
2022-12-03T08:53:36.524Z,22.35
2022-12-03T08:54:34.096Z,23.72
2022-12-03T08:55:34.992Z,25.91
2022-12-03T08:56:36.109Z,25.19
2022-12-03T08:57:34.837Z,24.87
2022-12-03T08:58:42.938Z,24.25
2022-12-03T08:59:45.333Z,25.81
2022-12-03T09:00:43.221Z,24.12
2022-12-03T09:01:47.798Z,24.29
2022-12-03T09:02:47.955Z,23.54
2022-12-03T09:03:51.418Z,22.83
2022-12-03T09:04:48.949Z,22.45
2022-12-03T09:05:46.303Z,22.54
2022-12-03T09:06:43.798Z,22.91
2022-12-03T09:07:41.274Z,23.60
2022-12-03T09:08:38.727Z,24.43
2022-12-03T09:09:36.260Z,26.83
2022-12-03T09:10:33.686Z,27.33
2022-12-03T09:11:31.077Z,29.16
2022-12-03T09:12:28.406Z,27.94
2022-12-03T09:13:25.795Z,28.55
2022-12-03T09:14:23.778Z,28.72
2022-12-03T09:15:21.187Z,29.09
2022-12-03T09:16:19.928Z,28.93
2022-12-03T09:17:35.234Z,28.77
2022-12-03T09:18:32.799Z,30.24
2022-12-03T09:19:31.258Z,28.60
2022-12-03T09:20:28.642Z,25.69
2022-12-03T09:21:26.003Z,24.39
2022-12-03T09:22:23.358Z,23.11
2022-12-03T09:23:20.711Z,21.75
2022-12-03T09:24:18.170Z,22.31
2022-12-03T09:25:16.069Z,21.96
2022-12-03T09:26:13.487Z,22.20
2022-12-03T09:27:10.856Z,22.86
2022-12-03T09:28:08.360Z,22.17
2022-12-03T09:29:11.722Z,21.85
2022-12-03T09:30:09.765Z,21.27
2022-12-03T09:31:07.072Z,23.04
2022-12-03T09:32:04.584Z,22.21
2022-12-03T09:33:02.079Z,22.33
2022-12-03T09:33:59.749Z,39.73
2022-12-03T09:34:57.212Z,33.34
2022-12-03T09:35:54.673Z,20.58
2022-12-03T09:36:52.012Z,19.56
2022-12-03T09:37:49.361Z,18.39
2022-12-03T09:38:48.275Z,19.02
2022-12-03T09:39:45.762Z,19.40
2022-12-03T09:40:43.261Z,21.34
2022-12-03T09:41:40.666Z,83.69
2022-12-03T09:42:38.567Z,190.59
2022-12-03T09:44:02.884Z,186.52
2022-12-03T09:44:54.276Z,49.63
2022-12-03T09:45:51.965Z,70.37
2022-12-03T09:46:49.827Z,188.86
2022-12-03T09:47:49.556Z,381.39
2022-12-03T09:48:47.028Z,116.63
2022-12-03T09:49:44.851Z,162.60
2022-12-03T09:50:42.740Z,128.76
2022-12-03T09:51:40.190Z,72.94
2022-12-03T09:52:37.630Z,31.41
2022-12-03T09:53:40.891Z,47.50
2022-12-03T09:54:41.621Z,53.58
2022-12-03T09:55:44.973Z,40.02
2022-12-03T09:56:42.324Z,255.13
2022-12-03T09:57:39.751Z,83.00
2022-12-03T09:58:37.093Z,27.89
2022-12-03T09:59:35.109Z,26.01
2022-12-03T10:00:32.407Z,35.20
2022-12-03T10:01:30.865Z,42.49
2022-12-03T10:02:30.667Z,32.55
2022-12-03T10:03:30.587Z,27.05
2022-12-03T10:04:28.938Z,17.99
2022-12-03T10:05:26.396Z,17.99
2022-12-03T10:06:24.058Z,17.04
2022-12-03T10:07:21.986Z,35.18
2022-12-03T10:08:21.885Z,27.31
2022-12-03T10:09:24.588Z,23.86
2022-12-03T10:10:23.954Z,42.64
2022-12-03T10:11:25.229Z,52.93
2022-12-03T10:12:24.296Z,37.79
2022-12-03T10:13:26.185Z,27.02
2022-12-03T10:14:23.877Z,28.26
2022-12-03T10:15:23.315Z,32.14
2022-12-03T10:16:21.404Z,319.19
2022-12-03T10:17:18.953Z,502.29
2022-12-03T10:18:20.855Z,226.60
2022-12-03T10:19:44.817Z,133.04
2022-12-03T10:20:42.183Z,72.63
2022-12-03T10:21:39.596Z,66.91
2022-12-03T10:22:37.492Z,192.13
2022-12-03T10:23:34.935Z,206.44
2022-12-03T10:24:33.986Z,188.23
2022-12-03T10:25:31.355Z,74.58
2022-12-03T10:26:40.585Z,30.20
2022-12-03T10:27:39.073Z,37.27
2022-12-03T10:28:40.759Z,39.97
2022-12-03T10:29:38.255Z,24.01
2022-12-03T10:30:35.675Z,20.18
2022-12-03T10:31:36.621Z,120.22
2022-12-03T10:32:50.316Z,75.96
2022-12-03T10:33:57.709Z,22.43
2022-12-03T10:35:07.809Z,42.59
2022-12-03T10:36:25.110Z,37.67
2022-12-03T10:37:22.753Z,45.39
2022-12-03T10:38:22.399Z,22.63
2022-12-03T10:39:19.810Z,32.91
2022-12-03T10:40:23.703Z,190.99
2022-12-03T10:41:25.934Z,362.20
2022-12-03T10:42:24.263Z,174.78
2022-12-03T10:43:24.297Z,48.73
2022-12-03T10:44:22.966Z,70.56
2022-12-03T10:45:22.650Z,79.70
2022-12-03T10:46:23.205Z,88.53
2022-12-03T10:47:22.623Z,77.94
2022-12-03T10:48:21.822Z,46.25
2022-12-03T10:49:19.865Z,85.37
2022-12-03T10:50:19.320Z,86.08
2022-12-03T10:51:21.068Z,54.00
2022-12-03T10:52:25.905Z,24.74
2022-12-03T10:53:27.854Z,18.08
2022-12-03T10:54:27.481Z,16.65
2022-12-03T10:55:25.154Z,16.82
2022-12-03T10:56:26.356Z,25.32
2022-12-03T10:57:23.999Z,18.87
2022-12-03T10:58:23.254Z,19.11
2022-12-03T10:59:25.191Z,18.78
2022-12-03T11:00:22.840Z,23.65
2022-12-03T11:01:22.644Z,23.76
2022-12-03T11:02:22.751Z,14.22
2022-12-03T11:03:22.893Z,13.05
2022-12-03T11:04:23.391Z,15.89
2022-12-03T11:05:26.763Z,29.65
2022-12-03T11:06:24.421Z,34.98
2022-12-03T11:07:22.625Z,21.61
2022-12-03T11:08:28.986Z,15.11
2022-12-03T11:09:29.134Z,14.08
2022-12-03T11:10:26.518Z,14.09
2022-12-03T11:11:25.554Z,13.98
2022-12-03T11:12:25.107Z,16.65
2022-12-03T11:13:34.455Z,15.29
2022-12-03T11:14:56.621Z,17.40
2022-12-03T11:15:55.081Z,18.09
2022-12-03T11:16:52.500Z,18.26
2022-12-03T11:17:52.160Z,21.77
2022-12-03T11:18:49.508Z,19.46
2022-12-03T11:19:48.019Z,17.09
2022-12-03T11:20:45.506Z,13.72
2022-12-03T11:22:01.450Z,18.38
2022-12-03T11:22:59.363Z,114.16
2022-12-03T11:23:59.432Z,83.96
2022-12-03T11:25:15.304Z,56.29
2022-12-03T11:26:18.651Z,33.38
2022-12-03T11:27:19.284Z,43.70
2022-12-03T11:28:19.522Z,104.06
2022-12-03T11:29:16.892Z,56.87
2022-12-03T11:30:34.175Z,61.29
2022-12-03T11:31:37.796Z,171.35
2022-12-03T11:32:38.200Z,129.81
2022-12-03T11:33:37.264Z,100.07
2022-12-03T11:34:34.603Z,92.90
2022-12-03T11:35:35.920Z,43.91
2022-12-03T11:37:00.346Z,48.42
2022-12-03T11:37:50.557Z,65.87
2022-12-03T11:38:53.438Z,68.97
2022-12-03T11:39:51.427Z,58.75
2022-12-03T11:41:07.035Z,163.18
2022-12-03T11:42:28.610Z,207.67
2022-12-03T11:43:44.436Z,62.74
2022-12-03T11:44:41.908Z,36.99
2022-12-03T11:45:39.424Z,31.16
2022-12-03T11:46:36.771Z,53.20
2022-12-03T11:47:45.319Z,19.50
2022-12-03T11:48:46.699Z,20.32
2022-12-03T11:49:47.305Z,34.24
2022-12-03T11:50:50.324Z,26.34
2022-12-03T11:51:48.092Z,19.68
2022-12-03T11:52:46.980Z,35.93
2022-12-03T11:53:45.307Z,18.60
2022-12-03T11:54:42.949Z,19.36
2022-12-03T11:55:44.415Z,17.71
2022-12-03T11:56:45.891Z,62.74
2022-12-03T11:57:43.475Z,26.29
2022-12-03T11:58:43.690Z,56.29
2022-12-03T11:59:56.596Z,115.76
2022-12-03T12:01:00.999Z,47.59
2022-12-03T12:01:58.323Z,48.10
2022-12-03T12:02:56.752Z,23.48
2022-12-03T12:03:54.235Z,25.53
2022-12-03T12:04:51.676Z,20.80
2022-12-03T12:06:00.110Z,18.08
2022-12-03T12:06:57.779Z,15.20
2022-12-03T12:07:56.393Z,16.67
2022-12-03T12:08:58.768Z,16.02
2022-12-03T12:09:57.385Z,37.25
2022-12-03T12:10:55.020Z,25.27
2022-12-03T12:11:52.368Z,24.04
2022-12-03T12:12:54.931Z,52.45
2022-12-03T12:14:00.116Z,60.91
2022-12-03T12:14:59.018Z,24.49
2022-12-03T12:15:57.013Z,15.94
2022-12-03T12:16:55.296Z,16.67
2022-12-03T12:17:52.759Z,19.85
2022-12-03T12:18:55.092Z,14.80
2022-12-03T12:20:10.568Z,56.73
2022-12-03T12:21:26.404Z,33.05
2022-12-03T12:22:26.559Z,21.13
2022-12-03T12:23:28.996Z,57.32
2022-12-03T12:24:46.898Z,53.56
2022-12-03T12:25:46.403Z,92.99
2022-12-03T12:26:52.162Z,248.95
2022-12-03T12:27:51.075Z,94.89
2022-12-03T12:28:48.382Z,38.68
2022-12-03T12:29:51.215Z,46.95
2022-12-03T12:30:48.687Z,51.79
2022-12-03T12:31:50.772Z,21.98
2022-12-03T12:32:52.639Z,30.70
2022-12-03T12:33:50.040Z,18.00
2022-12-03T12:34:49.344Z,14.03
2022-12-03T12:35:46.808Z,12.49
2022-12-03T12:36:44.308Z,14.62
2022-12-03T12:37:50.106Z,14.56
2022-12-03T12:38:52.372Z,40.87
2022-12-03T12:39:53.200Z,26.78
2022-12-03T12:40:50.918Z,19.03
2022-12-03T12:41:50.482Z,80.93
2022-12-03T12:42:55.391Z,88.15
2022-12-03T12:43:52.732Z,59.82
2022-12-03T12:44:50.480Z,19.71